Airport Name : Tulga

Other Name : Tulga

ICAO : LTAO

IATA :

FAA :

Latitude : 38.35375

Longitude : 38.253944

Country : Türkiye

Local Date and Time : 20 Jul 2024 09:42

 

TAF (Terminal Aerodrome Forecast)

TAF LTAO 200440Z 2006/2015 24009KT CAVOK BECMG 2007/2009 FEW040 SCT100 BECMG 2010/2012 33015KT

 

METAR (METeorological Aerodrome Report)